Waneta, Kentucky
Current Conditions -  °F | °C
As of 6:35 PM on Saturday 22 Nov 2014 (Local Time) from KI39 Reporting Station
Clear Clear  
Wind Chill: 54°   Ceiling: Unl
Heat Index: 54°   Visibility: 10mi
Dew Point: 27°   Wind: 8mph
Humidity: 35%   Direction: 170°S
Pressure: 30.14"   Gusts: NA
Location:  37.47°N, 84.04°W
Report Text: KI39 222335Z AUTO 17007KT 10SM CLR 12/M03 A3014 RMK AO2
Loading
Personal Weather Stations






























Interactive Weather Map New forecast layout! Learn more

10-Day Weather Forecast

Advertisements
Track Severe Weather on mobile